sensor_id;sensor_type;location;lat;lon;timestamp;P1;durP1;ratioP1;P2;durP2;ratioP2
1358;SDS011;673;48.098;14.422;2023-03-21T00:02:10;1.67;;;1.10;;
1358;SDS011;673;48.098;14.422;2023-03-21T00:04:37;1.20;;;1.20;;
1358;SDS011;673;48.098;14.422;2023-03-21T00:07:05;2.20;;;1.70;;
1358;SDS011;673;48.098;14.422;2023-03-21T00:09:33;1.43;;;1.33;;
1358;SDS011;673;48.098;14.422;2023-03-21T00:12:00;1.60;;;1.40;;
1358;SDS011;673;48.098;14.422;2023-03-21T00:14:33;1.73;;;1.10;;
1358;SDS011;673;48.098;14.422;2023-03-21T00:17:02;1.33;;;1.10;;
1358;SDS011;673;48.098;14.422;2023-03-21T00:19:29;1.17;;;1.00;;
1358;SDS011;673;48.098;14.422;2023-03-21T00:21:56;1.53;;;1.40;;
1358;SDS011;673;48.098;14.422;2023-03-21T00:24:26;1.10;;;0.90;;
1358;SDS011;673;48.098;14.422;2023-03-21T00:26:54;1.57;;;1.47;;
1358;SDS011;673;48.098;14.422;2023-03-21T00:29:21;1.90;;;1.33;;
1358;SDS011;673;48.098;14.422;2023-03-21T00:31:48;1.13;;;1.00;;
1358;SDS011;673;48.098;14.422;2023-03-21T00:34:15;1.67;;;1.57;;
1358;SDS011;673;48.098;14.422;2023-03-21T00:36:42;1.13;;;1.03;;
1358;SDS011;673;48.098;14.422;2023-03-21T00:39:09;1.10;;;1.00;;
1358;SDS011;673;48.098;14.422;2023-03-21T00:41:36;1.03;;;0.93;;
1358;SDS011;673;48.098;14.422;2023-03-21T00:44:05;1.10;;;1.00;;
1358;SDS011;673;48.098;14.422;2023-03-21T00:46:32;4.87;;;1.40;;
1358;SDS011;673;48.098;14.422;2023-03-21T00:49:00;2.57;;;1.17;;
1358;SDS011;673;48.098;14.422;2023-03-21T00:51:28;2.10;;;1.10;;
1358;SDS011;673;48.098;14.422;2023-03-21T00:53:56;1.83;;;1.23;;
1358;SDS011;673;48.098;14.422;2023-03-21T00:56:23;1.30;;;1.20;;
1358;SDS011;673;48.098;14.422;2023-03-21T00:58:50;1.67;;;1.10;;
1358;SDS011;673;48.098;14.422;2023-03-21T01:01:19;1.90;;;0.90;;
1358;SDS011;673;48.098;14.422;2023-03-21T01:03:45;2.20;;;1.40;;
1358;SDS011;673;48.098;14.422;2023-03-21T01:06:15;1.40;;;1.20;;
1358;SDS011;673;48.098;14.422;2023-03-21T01:08:45;1.10;;;1.00;;
1358;SDS011;673;48.098;14.422;2023-03-21T01:11:15;1.90;;;1.23;;
1358;SDS011;673;48.098;14.422;2023-03-21T01:13:44;1.50;;;1.40;;
1358;SDS011;673;48.098;14.422;2023-03-21T01:16:11;2.00;;;1.13;;
1358;SDS011;673;48.098;14.422;2023-03-21T01:18:40;0.93;;;0.90;;
1358;SDS011;673;48.098;14.422;2023-03-21T01:21:08;1.50;;;1.40;;
1358;SDS011;673;48.098;14.422;2023-03-21T01:23:38;2.70;;;1.67;;
1358;SDS011;673;48.098;14.422;2023-03-21T01:26:06;2.20;;;0.90;;
1358;SDS011;673;48.098;14.422;2023-03-21T01:28:34;1.50;;;1.40;;
1358;SDS011;673;48.098;14.422;2023-03-21T01:31:03;2.00;;;1.53;;
1358;SDS011;673;48.098;14.422;2023-03-21T01:33:31;1.73;;;1.33;;
1358;SDS011;673;48.098;14.422;2023-03-21T01:36:00;1.03;;;0.93;;
1358;SDS011;673;48.098;14.422;2023-03-21T01:38:28;1.53;;;1.43;;
1358;SDS011;673;48.098;14.422;2023-03-21T01:40:55;1.83;;;1.33;;
1358;SDS011;673;48.098;14.422;2023-03-21T01:43:25;1.83;;;1.47;;
1358;SDS011;673;48.098;14.422;2023-03-21T01:46:05;1.93;;;1.23;;
1358;SDS011;673;48.098;14.422;2023-03-21T01:48:47;3.30;;;1.47;;
1358;SDS011;673;48.098;14.422;2023-03-21T01:51:20;1.40;;;1.30;;
1358;SDS011;673;48.098;14.422;2023-03-21T01:53:48;1.30;;;1.20;;
1358;SDS011;673;48.098;14.422;2023-03-21T01:56:16;2.97;;;0.90;;
1358;SDS011;673;48.098;14.422;2023-03-21T01:58:48;1.87;;;1.00;;
1358;SDS011;673;48.098;14.422;2023-03-21T02:01:17;2.93;;;1.47;;
1358;SDS011;673;48.098;14.422;2023-03-21T02:03:47;1.53;;;1.00;;
1358;SDS011;673;48.098;14.422;2023-03-21T02:06:17;1.83;;;1.17;;
1358;SDS011;673;48.098;14.422;2023-03-21T02:08:54;3.83;;;1.60;;
1358;SDS011;673;48.098;14.422;2023-03-21T02:11:23;1.57;;;1.20;;
1358;SDS011;673;48.098;14.422;2023-03-21T02:13:51;1.40;;;1.23;;
1358;SDS011;673;48.098;14.422;2023-03-21T02:16:20;2.20;;;1.57;;
1358;SDS011;673;48.098;14.422;2023-03-21T02:18:55;1.30;;;1.20;;
1358;SDS011;673;48.098;14.422;2023-03-21T02:24:33;1.40;;;1.10;;
1358;SDS011;673;48.098;14.422;2023-03-21T02:27:28;1.37;;;1.27;;
1358;SDS011;673;48.098;14.422;2023-03-21T02:36:14;2.20;;;1.30;;
1358;SDS011;673;48.098;14.422;2023-03-21T02:38:49;1.63;;;1.43;;
1358;SDS011;673;48.098;14.422;2023-03-21T02:41:24;1.97;;;1.87;;
1358;SDS011;673;48.098;14.422;2023-03-21T02:43:58;1.87;;;1.30;;
1358;SDS011;673;48.098;14.422;2023-03-21T02:46:32;1.73;;;1.53;;
1358;SDS011;673;48.098;14.422;2023-03-21T02:49:08;1.60;;;1.50;;
1358;SDS011;673;48.098;14.422;2023-03-21T02:51:40;1.50;;;1.30;;
1358;SDS011;673;48.098;14.422;2023-03-21T02:54:11;1.83;;;1.70;;
1358;SDS011;673;48.098;14.422;2023-03-21T02:56:41;1.60;;;1.50;;
1358;SDS011;673;48.098;14.422;2023-03-21T02:59:09;1.67;;;1.57;;
1358;SDS011;673;48.098;14.422;2023-03-21T03:01:37;2.40;;;1.53;;
1358;SDS011;673;48.098;14.422;2023-03-21T03:04:16;1.57;;;1.30;;
1358;SDS011;673;48.098;14.422;2023-03-21T03:06:45;1.50;;;1.40;;
1358;SDS011;673;48.098;14.422;2023-03-21T03:09:28;1.83;;;1.40;;
1358;SDS011;673;48.098;14.422;2023-03-21T03:12:06;1.43;;;1.33;;
1358;SDS011;673;48.098;14.422;2023-03-21T03:14:49;1.50;;;1.40;;
1358;SDS011;673;48.098;14.422;2023-03-21T03:17:25;2.00;;;1.80;;
1358;SDS011;673;48.098;14.422;2023-03-21T03:20:07;1.53;;;1.43;;
1358;SDS011;673;48.098;14.422;2023-03-21T03:22:45;1.80;;;1.70;;
1358;SDS011;673;48.098;14.422;2023-03-21T03:25:20;1.63;;;1.53;;
1358;SDS011;673;48.098;14.422;2023-03-21T03:27:51;1.53;;;1.40;;
1358;SDS011;673;48.098;14.422;2023-03-21T03:30:19;5.03;;;1.70;;
1358;SDS011;673;48.098;14.422;2023-03-21T03:32:47;1.80;;;1.70;;
1358;SDS011;673;48.098;14.422;2023-03-21T03:35:18;1.90;;;1.60;;
1358;SDS011;673;48.098;14.422;2023-03-21T03:37:48;1.27;;;1.17;;
1358;SDS011;673;48.098;14.422;2023-03-21T03:40:23;1.57;;;1.27;;
1358;SDS011;673;48.098;14.422;2023-03-21T03:42:52;1.90;;;1.37;;
1358;SDS011;673;48.098;14.422;2023-03-21T03:45:24;2.70;;;2.00;;
1358;SDS011;673;48.098;14.422;2023-03-21T03:47:56;2.13;;;1.57;;
1358;SDS011;673;48.098;14.422;2023-03-21T03:50:30;7.50;;;2.30;;
1358;SDS011;673;48.098;14.422;2023-03-21T03:53:03;1.93;;;1.47;;
1358;SDS011;673;48.098;14.422;2023-03-21T03:55:37;1.50;;;1.30;;
1358;SDS011;673;48.098;14.422;2023-03-21T03:58:05;1.77;;;1.67;;
1358;SDS011;673;48.098;14.422;2023-03-21T04:00:33;2.67;;;2.47;;
1358;SDS011;673;48.098;14.422;2023-03-21T04:03:00;1.70;;;1.60;;
1358;SDS011;673;48.098;14.422;2023-03-21T04:05:27;1.87;;;1.77;;
1358;SDS011;673;48.098;14.422;2023-03-21T04:07:54;2.00;;;1.83;;
1358;SDS011;673;48.098;14.422;2023-03-21T04:10:22;1.93;;;1.77;;
1358;SDS011;673;48.098;14.422;2023-03-21T04:12:50;2.33;;;1.80;;
1358;SDS011;673;48.098;14.422;2023-03-21T04:15:17;2.00;;;1.87;;
1358;SDS011;673;48.098;14.422;2023-03-21T04:17:44;1.70;;;1.60;;
1358;SDS011;673;48.098;14.422;2023-03-21T04:20:11;3.10;;;1.90;;
1358;SDS011;673;48.098;14.422;2023-03-21T04:22:39;3.83;;;1.83;;
1358;SDS011;673;48.098;14.422;2023-03-21T04:25:06;2.07;;;1.40;;
1358;SDS011;673;48.098;14.422;2023-03-21T04:27:33;1.73;;;1.60;;
1358;SDS011;673;48.098;14.422;2023-03-21T04:30:02;1.67;;;1.57;;
1358;SDS011;673;48.098;14.422;2023-03-21T04:32:31;2.27;;;1.60;;
1358;SDS011;673;48.098;14.422;2023-03-21T04:35:04;1.60;;;1.50;;
1358;SDS011;673;48.098;14.422;2023-03-21T04:37:33;1.67;;;1.57;;
1358;SDS011;673;48.098;14.422;2023-03-21T04:40:00;1.33;;;1.00;;
1358;SDS011;673;48.098;14.422;2023-03-21T04:42:31;1.87;;;1.63;;
1358;SDS011;673;48.098;14.422;2023-03-21T04:44:59;2.33;;;2.13;;
1358;SDS011;673;48.098;14.422;2023-03-21T04:47:28;1.50;;;1.37;;
1358;SDS011;673;48.098;14.422;2023-03-21T04:49:55;6.50;;;1.60;;
1358;SDS011;673;48.098;14.422;2023-03-21T04:52:22;1.97;;;1.70;;
1358;SDS011;673;48.098;14.422;2023-03-21T04:54:49;2.20;;;1.80;;
1358;SDS011;673;48.098;14.422;2023-03-21T04:57:16;1.53;;;1.43;;
1358;SDS011;673;48.098;14.422;2023-03-21T04:59:43;2.50;;;1.53;;
1358;SDS011;673;48.098;14.422;2023-03-21T05:02:11;2.93;;;1.50;;
1358;SDS011;673;48.098;14.422;2023-03-21T05:04:39;2.07;;;1.60;;
1358;SDS011;673;48.098;14.422;2023-03-21T05:07:06;1.83;;;1.73;;
1358;SDS011;673;48.098;14.422;2023-03-21T05:09:33;1.50;;;1.40;;
1358;SDS011;673;48.098;14.422;2023-03-21T05:12:00;3.23;;;1.23;;
1358;SDS011;673;48.098;14.422;2023-03-21T05:14:28;2.13;;;1.63;;
1358;SDS011;673;48.098;14.422;2023-03-21T05:16:55;1.90;;;1.80;;
1358;SDS011;673;48.098;14.422;2023-03-21T05:19:22;2.27;;;2.17;;
1358;SDS011;673;48.098;14.422;2023-03-21T05:21:59;4.30;;;1.40;;
1358;SDS011;673;48.098;14.422;2023-03-21T05:24:28;1.33;;;1.23;;
1358;SDS011;673;48.098;14.422;2023-03-21T05:26:56;3.23;;;2.13;;
1358;SDS011;673;48.098;14.422;2023-03-21T05:29:26;1.80;;;1.70;;
1358;SDS011;673;48.098;14.422;2023-03-21T05:31:54;2.57;;;2.37;;
1358;SDS011;673;48.098;14.422;2023-03-21T05:34:21;1.80;;;1.70;;
1358;SDS011;673;48.098;14.422;2023-03-21T05:36:49;1.97;;;1.77;;
1358;SDS011;673;48.098;14.422;2023-03-21T05:39:18;3.53;;;1.47;;
1358;SDS011;673;48.098;14.422;2023-03-21T05:41:45;3.77;;;2.07;;
1358;SDS011;673;48.098;14.422;2023-03-21T05:44:12;5.17;;;4.67;;
1358;SDS011;673;48.098;14.422;2023-03-21T05:46:39;3.27;;;2.97;;
1358;SDS011;673;48.098;14.422;2023-03-21T05:49:08;4.73;;;3.90;;
1358;SDS011;673;48.098;14.422;2023-03-21T05:51:35;3.03;;;2.77;;
1358;SDS011;673;48.098;14.422;2023-03-21T05:54:02;2.80;;;2.20;;
1358;SDS011;673;48.098;14.422;2023-03-21T05:56:31;2.10;;;1.93;;
1358;SDS011;673;48.098;14.422;2023-03-21T05:58:58;1.30;;;1.20;;
1358;SDS011;673;48.098;14.422;2023-03-21T06:01:25;2.10;;;1.63;;
1358;SDS011;673;48.098;14.422;2023-03-21T06:03:52;2.17;;;2.00;;
1358;SDS011;673;48.098;14.422;2023-03-21T06:06:19;3.27;;;2.17;;
1358;SDS011;673;48.098;14.422;2023-03-21T06:08:46;2.77;;;1.90;;
1358;SDS011;673;48.098;14.422;2023-03-21T06:11:18;2.67;;;2.47;;
1358;SDS011;673;48.098;14.422;2023-03-21T06:13:50;2.37;;;2.17;;
1358;SDS011;673;48.098;14.422;2023-03-21T06:16:17;2.00;;;1.40;;
1358;SDS011;673;48.098;14.422;2023-03-21T06:18:44;1.80;;;1.40;;
1358;SDS011;673;48.098;14.422;2023-03-21T06:21:11;1.80;;;1.70;;
1358;SDS011;673;48.098;14.422;2023-03-21T06:23:38;1.50;;;1.40;;
1358;SDS011;673;48.098;14.422;2023-03-21T06:26:05;1.77;;;1.67;;
1358;SDS011;673;48.098;14.422;2023-03-21T06:28:33;2.40;;;2.20;;
1358;SDS011;673;48.098;14.422;2023-03-21T06:31:01;3.17;;;1.60;;
1358;SDS011;673;48.098;14.422;2023-03-21T06:33:28;1.60;;;1.50;;
1358;SDS011;673;48.098;14.422;2023-03-21T06:35:56;2.20;;;1.70;;
1358;SDS011;673;48.098;14.422;2023-03-21T06:38:24;1.37;;;1.27;;
1358;SDS011;673;48.098;14.422;2023-03-21T06:40:51;1.63;;;1.33;;
1358;SDS011;673;48.098;14.422;2023-03-21T06:43:18;3.80;;;1.63;;
1358;SDS011;673;48.098;14.422;2023-03-21T06:45:45;2.27;;;1.43;;
1358;SDS011;673;48.098;14.422;2023-03-21T06:48:14;1.87;;;1.57;;
1358;SDS011;673;48.098;14.422;2023-03-21T06:50:41;2.77;;;1.60;;
1358;SDS011;673;48.098;14.422;2023-03-21T06:53:08;2.57;;;1.17;;
1358;SDS011;673;48.098;14.422;2023-03-21T06:55:35;1.60;;;1.50;;
1358;SDS011;673;48.098;14.422;2023-03-21T06:58:02;2.07;;;1.50;;
1358;SDS011;673;48.098;14.422;2023-03-21T07:00:29;1.97;;;1.60;;
1358;SDS011;673;48.098;14.422;2023-03-21T07:02:56;2.50;;;1.87;;
1358;SDS011;673;48.098;14.422;2023-03-21T07:05:26;3.47;;;1.80;;
1358;SDS011;673;48.098;14.422;2023-03-21T07:07:53;2.53;;;1.90;;
1358;SDS011;673;48.098;14.422;2023-03-21T07:10:20;2.23;;;1.93;;
1358;SDS011;673;48.098;14.422;2023-03-21T07:12:47;4.90;;;1.50;;
1358;SDS011;673;48.098;14.422;2023-03-21T07:15:14;1.80;;;1.40;;
1358;SDS011;673;48.098;14.422;2023-03-21T07:17:41;4.63;;;1.70;;
1358;SDS011;673;48.098;14.422;2023-03-21T07:20:08;3.00;;;1.17;;
1358;SDS011;673;48.098;14.422;2023-03-21T07:22:38;1.83;;;1.73;;
1358;SDS011;673;48.098;14.422;2023-03-21T07:25:06;1.40;;;1.30;;
1358;SDS011;673;48.098;14.422;2023-03-21T07:27:34;2.03;;;1.93;;
1358;SDS011;673;48.098;14.422;2023-03-21T07:30:01;1.60;;;1.50;;
1358;SDS011;673;48.098;14.422;2023-03-21T07:32:30;2.67;;;1.77;;
1358;SDS011;673;48.098;14.422;2023-03-21T07:34:58;1.40;;;1.20;;
1358;SDS011;673;48.098;14.422;2023-03-21T07:37:25;1.83;;;1.73;;
1358;SDS011;673;48.098;14.422;2023-03-21T07:39:54;2.43;;;1.67;;
1358;SDS011;673;48.098;14.422;2023-03-21T07:42:21;2.17;;;1.17;;
1358;SDS011;673;48.098;14.422;2023-03-21T07:44:48;5.50;;;2.00;;
1358;SDS011;673;48.098;14.422;2023-03-21T07:47:16;2.47;;;2.27;;
1358;SDS011;673;48.098;14.422;2023-03-21T07:49:43;2.07;;;1.90;;
1358;SDS011;673;48.098;14.422;2023-03-21T07:52:10;3.90;;;1.87;;
1358;SDS011;673;48.098;14.422;2023-03-21T07:54:37;2.77;;;2.03;;
1358;SDS011;673;48.098;14.422;2023-03-21T07:57:05;2.60;;;1.87;;
1358;SDS011;673;48.098;14.422;2023-03-21T07:59:33;2.20;;;2.10;;
1358;SDS011;673;48.098;14.422;2023-03-21T08:02:00;2.40;;;2.23;;
1358;SDS011;673;48.098;14.422;2023-03-21T08:04:26;3.03;;;2.83;;
1358;SDS011;673;48.098;14.422;2023-03-21T08:06:53;2.20;;;2.00;;
1358;SDS011;673;48.098;14.422;2023-03-21T08:09:21;3.43;;;2.47;;
1358;SDS011;673;48.098;14.422;2023-03-21T08:11:48;3.17;;;2.60;;
1358;SDS011;673;48.098;14.422;2023-03-21T08:14:16;2.43;;;2.03;;
1358;SDS011;673;48.098;14.422;2023-03-21T08:16:43;2.37;;;2.17;;
1358;SDS011;673;48.098;14.422;2023-03-21T08:19:10;2.73;;;2.53;;
1358;SDS011;673;48.098;14.422;2023-03-21T08:21:37;2.10;;;1.90;;
1358;SDS011;673;48.098;14.422;2023-03-21T08:24:04;2.53;;;2.43;;
1358;SDS011;673;48.098;14.422;2023-03-21T08:26:32;2.20;;;2.00;;
1358;SDS011;673;48.098;14.422;2023-03-21T08:28:59;2.70;;;2.20;;
1358;SDS011;673;48.098;14.422;2023-03-21T08:31:28;2.77;;;2.57;;
1358;SDS011;673;48.098;14.422;2023-03-21T08:33:55;2.50;;;2.30;;
1358;SDS011;673;48.098;14.422;2023-03-21T08:36:22;3.57;;;2.57;;
1358;SDS011;673;48.098;14.422;2023-03-21T08:38:50;3.70;;;2.60;;
1358;SDS011;673;48.098;14.422;2023-03-21T08:41:20;2.03;;;1.93;;
1358;SDS011;673;48.098;14.422;2023-03-21T08:43:49;1.90;;;1.80;;
1358;SDS011;673;48.098;14.422;2023-03-21T08:46:16;2.23;;;1.93;;
1358;SDS011;673;48.098;14.422;2023-03-21T08:48:45;2.43;;;2.33;;
1358;SDS011;673;48.098;14.422;2023-03-21T08:51:12;2.03;;;1.73;;
1358;SDS011;673;48.098;14.422;2023-03-21T08:53:39;2.63;;;2.43;;
1358;SDS011;673;48.098;14.422;2023-03-21T08:56:06;2.70;;;2.50;;
1358;SDS011;673;48.098;14.422;2023-03-21T08:58:34;2.80;;;2.20;;
1358;SDS011;673;48.098;14.422;2023-03-21T09:01:02;3.03;;;2.83;;
1358;SDS011;673;48.098;14.422;2023-03-21T09:03:29;2.80;;;2.60;;
1358;SDS011;673;48.098;14.422;2023-03-21T09:05:57;3.40;;;3.10;;
1358;SDS011;673;48.098;14.422;2023-03-21T09:08:24;3.40;;;3.20;;
1358;SDS011;673;48.098;14.422;2023-03-21T09:10:51;2.77;;;2.57;;
1358;SDS011;673;48.098;14.422;2023-03-21T09:13:19;2.40;;;2.30;;
1358;SDS011;673;48.098;14.422;2023-03-21T09:15:46;3.43;;;3.10;;
1358;SDS011;673;48.098;14.422;2023-03-21T09:18:13;3.20;;;3.00;;
1358;SDS011;673;48.098;14.422;2023-03-21T09:20:42;2.40;;;2.30;;
1358;SDS011;673;48.098;14.422;2023-03-21T09:23:13;3.23;;;3.03;;
1358;SDS011;673;48.098;14.422;2023-03-21T09:25:40;2.60;;;2.40;;
1358;SDS011;673;48.098;14.422;2023-03-21T09:28:07;2.73;;;2.43;;
1358;SDS011;673;48.098;14.422;2023-03-21T09:30:34;3.23;;;2.93;;
1358;SDS011;673;48.098;14.422;2023-03-21T09:33:02;4.13;;;3.70;;
1358;SDS011;673;48.098;14.422;2023-03-21T09:35:43;3.93;;;3.63;;
1358;SDS011;673;48.098;14.422;2023-03-21T09:38:10;3.20;;;3.00;;
1358;SDS011;673;48.098;14.422;2023-03-21T09:40:41;3.40;;;2.57;;
1358;SDS011;673;48.098;14.422;2023-03-21T09:43:25;3.10;;;2.90;;
1358;SDS011;673;48.098;14.422;2023-03-21T09:46:02;2.53;;;2.33;;
1358;SDS011;673;48.098;14.422;2023-03-21T09:48:35;3.80;;;2.67;;
1358;SDS011;673;48.098;14.422;2023-03-21T09:51:09;3.77;;;3.47;;
1358;SDS011;673;48.098;14.422;2023-03-21T09:53:43;5.00;;;4.63;;
1358;SDS011;673;48.098;14.422;2023-03-21T09:56:14;2.80;;;2.60;;
1358;SDS011;673;48.098;14.422;2023-03-21T09:58:43;3.50;;;3.30;;
1358;SDS011;673;48.098;14.422;2023-03-21T10:01:15;2.30;;;1.90;;
1358;SDS011;673;48.098;14.422;2023-03-21T10:03:52;3.33;;;3.03;;
1358;SDS011;673;48.098;14.422;2023-03-21T10:06:20;2.70;;;2.50;;
1358;SDS011;673;48.098;14.422;2023-03-21T10:08:52;2.77;;;2.50;;
1358;SDS011;673;48.098;14.422;2023-03-21T10:11:24;3.67;;;3.33;;
1358;SDS011;673;48.098;14.422;2023-03-21T10:13:54;3.17;;;2.87;;
1358;SDS011;673;48.098;14.422;2023-03-21T10:16:26;2.47;;;2.27;;
1358;SDS011;673;48.098;14.422;2023-03-21T10:18:55;3.73;;;3.40;;
1358;SDS011;673;48.098;14.422;2023-03-21T10:21:25;3.07;;;2.87;;
1358;SDS011;673;48.098;14.422;2023-03-21T10:23:53;4.30;;;2.97;;
1358;SDS011;673;48.098;14.422;2023-03-21T10:26:24;2.33;;;2.13;;
1358;SDS011;673;48.098;14.422;2023-03-21T10:28:55;3.20;;;2.90;;
1358;SDS011;673;48.098;14.422;2023-03-21T10:31:25;2.77;;;2.57;;
1358;SDS011;673;48.098;14.422;2023-03-21T10:33:55;2.50;;;2.30;;
1358;SDS011;673;48.098;14.422;2023-03-21T10:36:27;2.43;;;2.23;;
1358;SDS011;673;48.098;14.422;2023-03-21T10:38:59;2.17;;;2.07;;
1358;SDS011;673;48.098;14.422;2023-03-21T10:41:30;2.67;;;2.47;;
1358;SDS011;673;48.098;14.422;2023-03-21T10:44:04;2.80;;;2.30;;
1358;SDS011;673;48.098;14.422;2023-03-21T10:46:33;2.40;;;2.20;;
1358;SDS011;673;48.098;14.422;2023-03-21T10:49:00;2.20;;;2.10;;
1358;SDS011;673;48.098;14.422;2023-03-21T10:51:29;2.97;;;2.77;;
1358;SDS011;673;48.098;14.422;2023-03-21T10:53:59;2.50;;;2.30;;
1358;SDS011;673;48.098;14.422;2023-03-21T10:56:34;5.63;;;3.13;;
1358;SDS011;673;48.098;14.422;2023-03-21T10:59:03;7.43;;;3.90;;
1358;SDS011;673;48.098;14.422;2023-03-21T11:01:34;3.00;;;2.80;;
1358;SDS011;673;48.098;14.422;2023-03-21T11:04:05;3.13;;;2.83;;
1358;SDS011;673;48.098;14.422;2023-03-21T11:06:35;2.27;;;2.17;;
1358;SDS011;673;48.098;14.422;2023-03-21T11:09:05;3.33;;;3.13;;
1358;SDS011;673;48.098;14.422;2023-03-21T11:11:39;13.03;;;4.07;;
1358;SDS011;673;48.098;14.422;2023-03-21T11:14:11;3.50;;;3.20;;
1358;SDS011;673;48.098;14.422;2023-03-21T11:16:51;4.60;;;4.07;;
1358;SDS011;673;48.098;14.422;2023-03-21T11:19:19;2.70;;;2.50;;
1358;SDS011;673;48.098;14.422;2023-03-21T11:21:55;2.67;;;2.57;;
1358;SDS011;673;48.098;14.422;2023-03-21T11:24:23;2.80;;;2.30;;
1358;SDS011;673;48.098;14.422;2023-03-21T11:26:55;3.20;;;2.73;;
1358;SDS011;673;48.098;14.422;2023-03-21T11:29:28;2.70;;;2.50;;
1358;SDS011;673;48.098;14.422;2023-03-21T11:31:57;3.03;;;2.70;;
1358;SDS011;673;48.098;14.422;2023-03-21T11:34:27;2.47;;;2.27;;
1358;SDS011;673;48.098;14.422;2023-03-21T11:37:00;4.93;;;3.03;;
1358;SDS011;673;48.098;14.422;2023-03-21T11:39:32;2.93;;;2.73;;
1358;SDS011;673;48.098;14.422;2023-03-21T11:42:05;2.80;;;2.60;;
1358;SDS011;673;48.098;14.422;2023-03-21T11:44:47;3.47;;;3.27;;
1358;SDS011;673;48.098;14.422;2023-03-21T11:47:22;3.83;;;3.30;;
1358;SDS011;673;48.098;14.422;2023-03-21T11:49:49;3.10;;;2.90;;
1358;SDS011;673;48.098;14.422;2023-03-21T11:52:19;5.10;;;3.33;;
1358;SDS011;673;48.098;14.422;2023-03-21T11:54:59;2.23;;;2.03;;
1358;SDS011;673;48.098;14.422;2023-03-21T11:57:38;3.17;;;2.97;;
1358;SDS011;673;48.098;14.422;2023-03-21T12:00:14;2.37;;;2.27;;
1358;SDS011;673;48.098;14.422;2023-03-21T12:03:02;1.90;;;1.80;;
1358;SDS011;673;48.098;14.422;2023-03-21T12:05:54;2.10;;;2.00;;
1358;SDS011;673;48.098;14.422;2023-03-21T12:08:28;2.40;;;2.30;;
1358;SDS011;673;48.098;14.422;2023-03-21T12:11:03;2.93;;;2.07;;
1358;SDS011;673;48.098;14.422;2023-03-21T12:13:45;2.60;;;2.43;;
1358;SDS011;673;48.098;14.422;2023-03-21T12:19:33;4.10;;;3.50;;
1358;SDS011;673;48.098;14.422;2023-03-21T12:22:20;3.03;;;2.83;;
1358;SDS011;673;48.098;14.422;2023-03-21T12:24:53;3.67;;;3.37;;
1358;SDS011;673;48.098;14.422;2023-03-21T12:27:23;4.07;;;2.77;;
1358;SDS011;673;48.098;14.422;2023-03-21T12:30:11;2.93;;;2.63;;
1358;SDS011;673;48.098;14.422;2023-03-21T12:32:51;5.53;;;3.80;;
1358;SDS011;673;48.098;14.422;2023-03-21T12:35:41;2.80;;;2.60;;
1358;SDS011;673;48.098;14.422;2023-03-21T12:38:20;3.33;;;2.80;;
1358;SDS011;673;48.098;14.422;2023-03-21T12:40:57;3.47;;;3.17;;
1358;SDS011;673;48.098;14.422;2023-03-21T12:43:36;3.13;;;2.77;;
1358;SDS011;673;48.098;14.422;2023-03-21T12:46:10;4.07;;;3.23;;
1358;SDS011;673;48.098;14.422;2023-03-21T12:48:43;3.67;;;3.37;;
1358;SDS011;673;48.098;14.422;2023-03-21T12:51:14;3.60;;;3.40;;
1358;SDS011;673;48.098;14.422;2023-03-21T12:53:47;3.60;;;3.40;;
1358;SDS011;673;48.098;14.422;2023-03-21T12:56:19;4.10;;;3.57;;
1358;SDS011;673;48.098;14.422;2023-03-21T12:58:50;4.47;;;3.90;;
1358;SDS011;673;48.098;14.422;2023-03-21T13:01:23;3.53;;;3.03;;
1358;SDS011;673;48.098;14.422;2023-03-21T13:04:03;4.93;;;3.83;;
1358;SDS011;673;48.098;14.422;2023-03-21T13:06:49;5.20;;;3.57;;
1358;SDS011;673;48.098;14.422;2023-03-21T13:09:20;3.77;;;3.47;;
1358;SDS011;673;48.098;14.422;2023-03-21T13:11:54;3.17;;;2.73;;
1358;SDS011;673;48.098;14.422;2023-03-21T13:14:27;3.83;;;3.40;;
1358;SDS011;673;48.098;14.422;2023-03-21T13:17:02;3.90;;;3.60;;
1358;SDS011;673;48.098;14.422;2023-03-21T13:19:37;3.20;;;3.00;;
1358;SDS011;673;48.098;14.422;2023-03-21T13:22:10;3.87;;;3.57;;
1358;SDS011;673;48.098;14.422;2023-03-21T13:24:45;3.60;;;3.40;;
1358;SDS011;673;48.098;14.422;2023-03-21T13:27:15;2.80;;;2.60;;
1358;SDS011;673;48.098;14.422;2023-03-21T13:29:48;3.07;;;2.87;;
1358;SDS011;673;48.098;14.422;2023-03-21T13:32:22;5.00;;;4.67;;
1358;SDS011;673;48.098;14.422;2023-03-21T13:34:54;3.67;;;3.37;;
1358;SDS011;673;48.098;14.422;2023-03-21T13:37:23;4.20;;;3.80;;
1358;SDS011;673;48.098;14.422;2023-03-21T13:39:55;4.03;;;3.73;;
1358;SDS011;673;48.098;14.422;2023-03-21T13:42:28;4.40;;;4.00;;
1358;SDS011;673;48.098;14.422;2023-03-21T13:44:58;4.37;;;4.07;;
1358;SDS011;673;48.098;14.422;2023-03-21T13:47:40;4.63;;;4.07;;
1358;SDS011;673;48.098;14.422;2023-03-21T13:50:23;5.07;;;4.60;;
1358;SDS011;673;48.098;14.422;2023-03-21T13:55:57;8.17;;;3.93;;
1358;SDS011;673;48.098;14.422;2023-03-21T13:58:49;3.60;;;3.30;;
1358;SDS011;673;48.098;14.422;2023-03-21T14:01:24;5.73;;;3.60;;
1358;SDS011;673;48.098;14.422;2023-03-21T14:04:03;3.87;;;3.57;;
1358;SDS011;673;48.098;14.422;2023-03-21T14:06:37;3.00;;;2.80;;
1358;SDS011;673;48.098;14.422;2023-03-21T14:09:08;3.20;;;3.00;;
1358;SDS011;673;48.098;14.422;2023-03-21T14:11:41;3.23;;;3.03;;
1358;SDS011;673;48.098;14.422;2023-03-21T14:14:09;3.57;;;3.27;;
1358;SDS011;673;48.098;14.422;2023-03-21T14:16:36;3.03;;;2.83;;
1358;SDS011;673;48.098;14.422;2023-03-21T14:19:05;2.97;;;2.77;;
1358;SDS011;673;48.098;14.422;2023-03-21T14:21:33;3.60;;;3.30;;
1358;SDS011;673;48.098;14.422;2023-03-21T14:24:02;3.00;;;2.70;;
1358;SDS011;673;48.098;14.422;2023-03-21T14:26:30;6.20;;;3.13;;
1358;SDS011;673;48.098;14.422;2023-03-21T14:29:00;4.07;;;2.83;;
1358;SDS011;673;48.098;14.422;2023-03-21T14:31:29;3.30;;;3.10;;
1358;SDS011;673;48.098;14.422;2023-03-21T14:33:58;3.23;;;3.03;;
1358;SDS011;673;48.098;14.422;2023-03-21T14:36:29;6.63;;;4.33;;
1358;SDS011;673;48.098;14.422;2023-03-21T14:39:04;4.37;;;4.07;;
1358;SDS011;673;48.098;14.422;2023-03-21T14:41:32;4.10;;;3.53;;
1358;SDS011;673;48.098;14.422;2023-03-21T14:44:14;4.23;;;3.83;;
1358;SDS011;673;48.098;14.422;2023-03-21T14:46:58;4.37;;;4.00;;
1358;SDS011;673;48.098;14.422;2023-03-21T14:49:27;3.40;;;3.20;;
1358;SDS011;673;48.098;14.422;2023-03-21T14:51:57;3.00;;;2.80;;
1358;SDS011;673;48.098;14.422;2023-03-21T14:54:26;7.30;;;3.20;;
1358;SDS011;673;48.098;14.422;2023-03-21T14:56:56;3.73;;;3.40;;
1358;SDS011;673;48.098;14.422;2023-03-21T14:59:26;3.77;;;3.47;;
1358;SDS011;673;48.098;14.422;2023-03-21T15:01:57;5.10;;;3.30;;
1358;SDS011;673;48.098;14.422;2023-03-21T15:04:27;3.53;;;3.23;;
1358;SDS011;673;48.098;14.422;2023-03-21T15:06:58;3.63;;;3.33;;
1358;SDS011;673;48.098;14.422;2023-03-21T15:09:29;3.83;;;3.50;;
1358;SDS011;673;48.098;14.422;2023-03-21T15:11:57;4.40;;;3.70;;
1358;SDS011;673;48.098;14.422;2023-03-21T15:14:27;5.00;;;3.50;;
1358;SDS011;673;48.098;14.422;2023-03-21T15:16:56;4.00;;;2.90;;
1358;SDS011;673;48.098;14.422;2023-03-21T15:19:28;4.70;;;3.40;;
1358;SDS011;673;48.098;14.422;2023-03-21T15:22:00;4.83;;;4.20;;
1358;SDS011;673;48.098;14.422;2023-03-21T15:24:32;11.33;;;2.60;;
1358;SDS011;673;48.098;14.422;2023-03-21T15:27:04;3.57;;;3.00;;
1358;SDS011;673;48.098;14.422;2023-03-21T15:29:32;2.90;;;2.70;;
1358;SDS011;673;48.098;14.422;2023-03-21T15:32:02;3.50;;;3.20;;
1358;SDS011;673;48.098;14.422;2023-03-21T15:34:30;2.90;;;2.70;;
1358;SDS011;673;48.098;14.422;2023-03-21T15:36:57;2.80;;;2.60;;
1358;SDS011;673;48.098;14.422;2023-03-21T15:39:30;3.27;;;3.07;;
1358;SDS011;673;48.098;14.422;2023-03-21T15:42:01;3.00;;;2.70;;
1358;SDS011;673;48.098;14.422;2023-03-21T15:44:30;3.00;;;2.70;;
1358;SDS011;673;48.098;14.422;2023-03-21T15:46:59;3.07;;;2.77;;
1358;SDS011;673;48.098;14.422;2023-03-21T15:49:28;2.70;;;2.10;;
1358;SDS011;673;48.098;14.422;2023-03-21T15:51:57;3.50;;;2.87;;